Time;durP1;ratioP1;P1;durP2;ratioP2;P2;SDS_P1;SDS_P2;PMS_P1;PMS_P2;Temp;Humidity;BMP_temperature;BMP_pressure;BME280_temperature;BME280_humidity;BME280_pressure;Samples;Min_cycle;Max_cycle;Signal;HPM_P1;HPM_P2
2022/01/30 00:00:10;;;;;;;;;;;;;;;;;;6276341;22;20261;-77
2022/01/30 00:02:35;;;;;;;;;;;;;;;;;;6276475;22;19907;-80
2022/01/30 00:05:01;;;;;;;;;;;;;;;;;;6278508;22;19915;-79
2022/01/30 00:07:26;;;;;;;;;;;;;;;;;;6252442;22;19957;-79
2022/01/30 00:09:53;;;;;;;;;;;;;;;;;;6278062;22;19911;-78
2022/01/30 00:12:27;;;;;;;;;;;;;;;;;;6278244;22;19907;-79
2022/01/30 00:14:55;;;;;;;;;;;;;;;;;;6279405;22;19915;-79
2022/01/30 00:17:28;;;;;;;;;;;;;;;;;;6277422;22;20334;-78
2022/01/30 00:20:04;;;;;;;;;;;;;;;;;;6277649;22;20006;-78
2022/01/30 00:24:59;;;;;;;;;;;;;;;;;;6276475;22;20234;-78
2022/01/30 00:27:46;;;;;;;;;;;;;;;;;;6277615;22;19985;-75
2022/01/30 00:30:14;;;;;;;;;;;;;;;;;;6276597;22;19907;-79
2022/01/30 00:32:39;;;;;;;;;;;;;;;;;;6277220;22;19915;-77
2022/01/30 00:35:04;;;;;;;;;;;;;;;;;;6276813;22;20188;-77
2022/01/30 00:37:30;;;;;;;;;;;;;;;;;;6250652;22;19915;-78
2022/01/30 00:39:55;;;;;;;;;;;;;;;;;;6277466;22;19952;-78
2022/01/30 00:42:22;;;;;;;;;;;;;;;;;;6250122;22;19986;-77
2022/01/30 00:44:49;;;;;;;;;;;;;;;;;;6277498;22;19911;-78
2022/01/30 00:47:14;;;;;;;;;;;;;;;;;;6276130;22;19911;-79
2022/01/30 00:49:40;;;;;;;;;;;;;;;;;;6277526;22;19982;-78
2022/01/30 00:52:06;;;;;;;;;;;;;;;;;;6277602;22;19907;-78
2022/01/30 00:54:31;;;;;;;;;;;;;;;;;;6279852;22;19998;-78
2022/01/30 00:56:57;;;;;;;;;;;;;;;;;;6279892;22;19964;-78
2022/01/30 00:59:22;;;;;;;;;;;;;;;;;;6253001;22;19978;-79
2022/01/30 01:01:47;;;;;;;;;;;;;;;;;;6252874;22;19935;-78
2022/01/30 01:04:13;;;;;;;;;;;;;;;;;;6279202;22;19951;-79
2022/01/30 01:06:39;;;;;;;;;;;;;;;;;;6279269;22;20249;-78
2022/01/30 01:09:06;;;;;;;;;;;;;;;;;;6279315;22;19933;-78
2022/01/30 01:12:08;;;;;;;;;;;;;;;;;;6252430;22;19938;-78
2022/01/30 01:25:20;;;;;;;;;;;;;;;;;;6279167;22;19972;-79
2022/01/30 01:27:45;;;;;;;;;;;;;;;;;;6279172;22;19907;-78
2022/01/30 01:30:10;;;;;;;;;;;;;;;;;;6279036;22;20338;-78
2022/01/30 01:32:36;;;;;;;;;;;;;;;;;;6279511;22;19939;-78
2022/01/30 01:35:01;;;;;;;;;;;;;;;;;;6279202;22;19922;-79
2022/01/30 01:37:29;;;;;;;;;;;;;;;;;;6279374;22;20324;-79
2022/01/30 01:39:56;;;;;;;;;;;;;;;;;;6279113;22;19914;-79
2022/01/30 01:42:23;;;;;;;;;;;;;;;;;;6279265;22;20293;-79
2022/01/30 01:44:52;;;;;;;;;;;;;;;;;;6278643;22;19922;-78
2022/01/30 01:47:20;;;;;;;;;;;;;;;;;;6279319;22;19935;-78
2022/01/30 01:49:47;;;;;;;;;;;;;;;;;;6252190;22;19907;-77
2022/01/30 01:52:23;;;;;;;;;;;;;;;;;;6278993;22;19917;-78
2022/01/30 01:54:48;;;;;;;;;;;;;;;;;;6278692;22;20186;-76
2022/01/30 01:57:14;;;;;;;;;;;;;;;;;;6279048;22;19989;-78
2022/01/30 01:59:39;;;;;;;;;;;;;;;;;;6251782;22;19907;-78
2022/01/30 02:02:05;;;;;;;;;;;;;;;;;;6252132;22;19913;-78
2022/01/30 02:04:30;;;;;;;;;;;;;;;;;;6277742;22;19922;-79
2022/01/30 02:07:23;;;;;;;;;;;;;;;;;;6252174;22;19908;-79
2022/01/30 02:09:48;;;;;;;;;;;;;;;;;;6278243;22;19911;-79
2022/01/30 02:12:22;;;;;;;;;;;;;;;;;;6252178;22;19908;-79
2022/01/30 02:25:56;;;;;;;;;;;;;;;;;;6234471;22;19927;-76
2022/01/30 02:28:21;;;;;;;;;;;;;;;;;;6279103;22;19907;-77
2022/01/30 02:30:55;;;;;;;;;;;;;;;;;;6278531;22;20261;-79
2022/01/30 02:33:20;;;;;;;;;;;;;;;;;;6277897;22;19931;-78
2022/01/30 02:35:46;;;;;;;;;;;;;;;;;;6278598;22;19907;-78
2022/01/30 02:38:11;;;;;;;;;;;;;;;;;;6278545;22;19911;-78
2022/01/30 02:40:40;;;;;;;;;;;;;;;;;;6278381;22;19925;-76
2022/01/30 02:43:06;;;;;;;;;;;;;;;;;;6278813;22;19907;-79
2022/01/30 02:45:34;;;;;;;;;;;;;;;;;;6278513;22;20333;-77
2022/01/30 02:50:38;;;;;;;;;;;;;;;;;;6278783;22;19973;-79
2022/01/30 02:53:05;;;;;;;;;;;;;;;;;;6277396;22;19918;-79
2022/01/30 02:55:32;;;;;;;;;;;;;;;;;;6278309;22;19937;-78
2022/01/30 02:57:58;;;;;;;;;;;;;;;;;;6277368;22;19915;-78
2022/01/30 03:00:23;;;;;;;;;;;;;;;;;;6277470;22;19998;-78
2022/01/30 03:02:48;;;;;;;;;;;;;;;;;;6278010;22;19918;-78
2022/01/30 03:05:13;;;;;;;;;;;;;;;;;;6277391;22;19922;-77
2022/01/30 03:07:39;;;;;;;;;;;;;;;;;;6277799;22;19907;-78
2022/01/30 03:10:04;;;;;;;;;;;;;;;;;;6278434;22;19907;-79
2022/01/30 03:12:29;;;;;;;;;;;;;;;;;;6278341;22;19978;-77
2022/01/30 03:14:57;;;;;;;;;;;;;;;;;;6277940;22;20413;-78
2022/01/30 03:17:24;;;;;;;;;;;;;;;;;;6278119;22;19990;-78
2022/01/30 03:19:49;;;;;;;;;;;;;;;;;;6277148;22;19908;-78
2022/01/30 03:22:15;;;;;;;;;;;;;;;;;;6278301;22;19968;-78
2022/01/30 03:24:40;;;;;;;;;;;;;;;;;;6278339;22;19965;-78
2022/01/30 03:27:07;;;;;;;;;;;;;;;;;;6251259;22;20225;-78
2022/01/30 03:29:33;;;;;;;;;;;;;;;;;;6278138;22;19939;-78
2022/01/30 03:32:00;;;;;;;;;;;;;;;;;;6277418;22;19914;-78
2022/01/30 03:34:28;;;;;;;;;;;;;;;;;;6277510;22;19907;-78
2022/01/30 03:36:54;;;;;;;;;;;;;;;;;;6276970;22;19929;-78
2022/01/30 03:39:19;;;;;;;;;;;;;;;;;;6278210;22;19978;-77
2022/01/30 03:41:44;;;;;;;;;;;;;;;;;;6277847;22;19915;-79
2022/01/30 03:44:09;;;;;;;;;;;;;;;;;;6277842;22;19985;-79
2022/01/30 03:46:35;;;;;;;;;;;;;;;;;;6278100;22;19915;-81
2022/01/30 03:49:00;;;;;;;;;;;;;;;;;;6278050;22;20206;-82
2022/01/30 03:51:25;;;;;;;;;;;;;;;;;;6277982;22;20314;-82
2022/01/30 03:53:50;;;;;;;;;;;;;;;;;;6277992;22;20301;-83
2022/01/30 03:56:15;;;;;;;;;;;;;;;;;;6278069;22;19907;-83
2022/01/30 03:58:41;;;;;;;;;;;;;;;;;;6251448;22;19907;-84
2022/01/30 04:01:08;;;;;;;;;;;;;;;;;;6251194;22;20306;-83
2022/01/30 04:03:36;;;;;;;;;;;;;;;;;;6277949;22;19907;-82
2022/01/30 04:06:01;;;;;;;;;;;;;;;;;;6251197;22;20299;-82
2022/01/30 04:08:26;;;;;;;;;;;;;;;;;;6277935;22;19922;-81
2022/01/30 04:10:51;;;;;;;;;;;;;;;;;;6277980;22;19994;-81
2022/01/30 04:13:17;;;;;;;;;;;;;;;;;;6276492;22;19966;-81
2022/01/30 04:15:44;;;;;;;;;;;;;;;;;;6277957;22;19912;-81
2022/01/30 04:18:09;;;;;;;;;;;;;;;;;;6278130;22;20278;-82
2022/01/30 04:20:35;;;;;;;;;;;;;;;;;;6277831;22;19907;-81
2022/01/30 04:23:00;;;;;;;;;;;;;;;;;;6278071;22;19907;-82
2022/01/30 04:25:28;;;;;;;;;;;;;;;;;;6278070;22;19915;-81
2022/01/30 04:27:53;;;;;;;;;;;;;;;;;;6252972;22;19990;-81
2022/01/30 04:30:18;;;;;;;;;;;;;;;;;;6280118;22;19939;-81
2022/01/30 04:32:44;;;;;;;;;;;;;;;;;;6280244;22;19926;-82
2022/01/30 04:35:20;;;;;;;;;;;;;;;;;;6279888;22;20275;-81
2022/01/30 04:59:09;;;;;;;;;;;;;;;;;;6279588;22;19998;-81
2022/01/30 05:04:18;;;;;;;;;;;;;;;;;;6279513;22;20297;-82
2022/01/30 05:07:29;;;;;;;;;;;;;;;;;;6279375;22;19917;-80
2022/01/30 05:09:41;;;;;;;;;;;;;;;;;;6279463;22;19990;-82
2022/01/30 05:12:06;;;;;;;;;;;;;;;;;;6278598;22;20195;-82
2022/01/30 05:14:36;;;;;;;;;;;;;;;;;;6279767;22;19915;-82
2022/01/30 05:17:01;;;;;;;;;;;;;;;;;;6279459;22;19934;-81
2022/01/30 05:19:26;;;;;;;;;;;;;;;;;;6279606;22;20218;-81
2022/01/30 05:21:52;;;;;;;;;;;;;;;;;;6278256;22;19915;-82
2022/01/30 05:24:17;;;;;;;;;;;;;;;;;;6279788;22;19921;-82
2022/01/30 05:26:43;;;;;;;;;;;;;;;;;;6252745;22;20033;-81
2022/01/30 05:29:08;;;;;;;;;;;;;;;;;;6279725;22;19919;-81
2022/01/30 05:31:33;;;;;;;;;;;;;;;;;;6279473;22;20340;-81
2022/01/30 05:33:59;;;;;;;;;;;;;;;;;;6279386;22;20291;-81
2022/01/30 05:36:24;;;;;;;;;;;;;;;;;;6252593;22;19946;-81
2022/01/30 05:38:50;;;;;;;;;;;;;;;;;;6252396;22;19911;-82
2022/01/30 05:41:17;;;;;;;;;;;;;;;;;;6278295;22;19908;-81
2022/01/30 05:43:44;;;;;;;;;;;;;;;;;;6279318;22;19911;-81
2022/01/30 05:46:13;;;;;;;;;;;;;;;;;;6278887;22;20421;-82
2022/01/30 05:48:38;;;;;;;;;;;;;;;;;;6278621;22;19907;-80
2022/01/30 05:51:04;;;;;;;;;;;;;;;;;;6251943;22;19925;-81
2022/01/30 05:53:32;;;;;;;;;;;;;;;;;;6277954;22;19907;-80
2022/01/30 05:55:59;;;;;;;;;;;;;;;;;;6252465;22;20192;-81
2022/01/30 05:58:29;;;;;;;;;;;;;;;;;;6278047;22;19914;-80
2022/01/30 06:00:55;;;;;;;;;;;;;;;;;;6279117;22;19907;-81
2022/01/30 06:03:20;;;;;;;;;;;;;;;;;;6279383;22;19907;-80
2022/01/30 06:05:49;;;;;;;;;;;;;;;;;;6279170;22;20187;-79
2022/01/30 06:08:27;;;;;;;;;;;;;;;;;;6278749;22;19908;-81
2022/01/30 06:10:52;;;;;;;;;;;;;;;;;;6279084;22;19965;-80
2022/01/30 06:13:17;;;;;;;;;;;;;;;;;;6278861;22;20260;-80
2022/01/30 06:15:42;;;;;;;;;;;;;;;;;;6278936;22;19907;-81
2022/01/30 06:18:07;;;;;;;;;;;;;;;;;;6279024;22;19907;-82
2022/01/30 06:20:33;;;;;;;;;;;;;;;;;;6279109;22;19907;-82
2022/01/30 06:23:00;;;;;;;;;;;;;;;;;;6279088;22;19998;-81
2022/01/30 06:25:25;;;;;;;;;;;;;;;;;;6277778;22;19965;-81
2022/01/30 06:27:50;;;;;;;;;;;;;;;;;;6281733;22;19915;-81
2022/01/30 06:30:21;;;;;;;;;;;;;;;;;;6291692;22;19931;-82
2022/01/30 06:32:46;;;;;;;;;;;;;;;;;;6288491;22;19907;-81
2022/01/30 06:35:14;;;;;;;;;;;;;;;;;;6278603;22;20325;-82
2022/01/30 06:37:39;;;;;;;;;;;;;;;;;;6278628;22;20034;-82
2022/01/30 06:40:05;;;;;;;;;;;;;;;;;;6251662;22;19943;-81
2022/01/30 06:42:30;;;;;;;;;;;;;;;;;;6278370;22;20010;-80
2022/01/30 06:44:58;;;;;;;;;;;;;;;;;;6277370;22;19992;-82
2022/01/30 06:47:23;;;;;;;;;;;;;;;;;;6251571;22;19915;-82
2022/01/30 06:49:48;;;;;;;;;;;;;;;;;;6279027;22;20011;-82
2022/01/30 06:52:15;;;;;;;;;;;;;;;;;;6278560;22;19973;-83
2022/01/30 06:54:40;;;;;;;;;;;;;;;;;;6278639;22;19949;-81
2022/01/30 06:57:08;;;;;;;;;;;;;;;;;;6278488;22;19907;-82
2022/01/30 06:59:33;;;;;;;;;;;;;;;;;;6278045;22;20183;-81
2022/01/30 07:01:58;;;;;;;;;;;;;;;;;;6278606;22;19918;-83
2022/01/30 07:04:23;;;;;;;;;;;;;;;;;;6278448;22;19926;-82
2022/01/30 07:06:49;;;;;;;;;;;;;;;;;;6278388;22;19907;-83
2022/01/30 07:09:17;;;;;;;;;;;;;;;;;;6277246;22;19911;-82
2022/01/30 07:11:42;;;;;;;;;;;;;;;;;;6278391;22;19911;-82
2022/01/30 07:14:07;;;;;;;;;;;;;;;;;;6278175;22;19911;-83
2022/01/30 07:16:32;;;;;;;;;;;;;;;;;;6278140;22;19941;-84
2022/01/30 07:19:03;;;;;;;;;;;;;;;;;;6278535;22;19956;-83
2022/01/30 07:21:28;;;;;;;;;;;;;;;;;;6277953;22;20362;-83
2022/01/30 07:23:54;;;;;;;;;;;;;;;;;;6278190;22;19938;-83
2022/01/30 07:26:19;;;;;;;;;;;;;;;;;;6278152;22;19911;-83
2022/01/30 07:28:46;;;;;;;;;;;;;;;;;;6251378;22;19908;-82
2022/01/30 07:31:12;;;;;;;;;;;;;;;;;;6277985;22;19964;-83
2022/01/30 07:33:40;;;;;;;;;;;;;;;;;;6278011;22;19945;-82
2022/01/30 07:36:05;;;;;;;;;;;;;;;;;;6249178;22;19934;-84
2022/01/30 07:38:34;;;;;;;;;;;;;;;;;;6278136;22;20302;-83
2022/01/30 07:40:59;;;;;;;;;;;;;;;;;;6251710;22;19997;-84
2022/01/30 07:43:27;;;;;;;;;;;;;;;;;;6251522;22;20283;-82
2022/01/30 07:45:52;;;;;;;;;;;;;;;;;;6278819;22;20336;-84
2022/01/30 07:48:18;;;;;;;;;;;;;;;;;;6280875;22;19907;-82
2022/01/30 07:50:43;;;;;;;;;;;;;;;;;;6287805;22;19934;-82
2022/01/30 07:53:09;;;;;;;;;;;;;;;;;;6280410;22;19907;-82
2022/01/30 07:55:34;;;;;;;;;;;;;;;;;;6252355;22;19915;-82
2022/01/30 07:58:01;;;;;;;;;;;;;;;;;;6278020;22;19918;-82
2022/01/30 08:00:26;;;;;;;;;;;;;;;;;;6277850;22;19908;-82
2022/01/30 08:02:52;;;;;;;;;;;;;;;;;;6280434;22;19941;-81
2022/01/30 08:05:18;;;;;;;;;;;;;;;;;;6277272;22;19969;-82
2022/01/30 08:07:45;;;;;;;;;;;;;;;;;;6252333;22;19930;-82
2022/01/30 08:10:11;;;;;;;;;;;;;;;;;;6253019;22;20302;-82
2022/01/30 08:12:38;;;;;;;;;;;;;;;;;;6279805;22;19907;-82
2022/01/30 08:15:03;;;;;;;;;;;;;;;;;;6278453;22;19953;-82
2022/01/30 08:17:32;;;;;;;;;;;;;;;;;;6279809;22;19907;-83
2022/01/30 08:19:57;;;;;;;;;;;;;;;;;;6252120;22;20295;-82
2022/01/30 08:22:31;;;;;;;;;;;;;;;;;;6280013;22;19922;-82
2022/01/30 08:24:57;;;;;;;;;;;;;;;;;;6279604;22;19942;-83
2022/01/30 08:30:42;;;;;;;;;;;;;;;;;;6155511;23;19921;-81
2022/01/30 08:33:09;;;;;;;;;;;;;;;;;;6276991;22;19907;-81
2022/01/30 08:35:34;;;;;;;;;;;;;;;;;;6279872;22;19982;-82
2022/01/30 08:38:00;;;;;;;;;;;;;;;;;;6252843;22;19949;-82
2022/01/30 08:40:25;;;;;;;;;;;;;;;;;;6278526;22;19915;-81
2022/01/30 08:42:51;;;;;;;;;;;;;;;;;;6279725;22;19907;-82
2022/01/30 08:45:17;;;;;;;;;;;;;;;;;;6279454;22;19965;-82
2022/01/30 08:47:43;;;;;;;;;;;;;;;;;;6279892;22;19933;-82
2022/01/30 08:50:08;;;;;;;;;;;;;;;;;;6279755;22;19918;-82
2022/01/30 08:52:34;;;;;;;;;;;;;;;;;;6253344;22;19907;-82
2022/01/30 08:58:10;;;;;;;;;;;;;;;;;;6279574;22;19914;-81
2022/01/30 09:10:19;;;;;;;;;;;;;;;;;;6185886;23;20302;-82
2022/01/30 09:12:44;;;;;;;;;;;;;;;;;;6185173;23;19927;-84
2022/01/30 09:19:06;;;;;;;;;;;;;;;;;;6185916;23;20003;-81
2022/01/30 09:24:45;;;;;;;;;;;;;;;;;;6097071;23;20273;-83
2022/01/30 09:28:00;;;;;;;;;;;;;;;;;;;;;
2022/01/30 09:39:42;;;;;;;;;;;;;;;;;;6039491;23;19982;-82
2022/01/30 09:42:07;;;;;;;;;;;;;;;;;;6020716;23;19910;-82
2022/01/30 09:44:34;;;;;;;;;;;;;;;;;;5987813;23;19915;-82
2022/01/30 09:46:59;;;;;;;;;;;;;;;;;;6041183;23;19987;-83
2022/01/30 09:49:38;;;;;;;;;;;;;;;;;;6068014;23;20302;-82
2022/01/30 09:52:03;;;;;;;;;;;;;;;;;;6068233;23;19928;-83
2022/01/30 09:55:02;;;;;;;;;;;;;;;;;;6060433;23;19935;-84
2022/01/30 09:57:40;;;;;;;;;;;;;;;;;;6153239;23;19936;-82
2022/01/30 10:00:05;;;;;;;;;;;;;;;;;;6155197;22;20307;-82
2022/01/30 10:03:02;;;;;;;;;;;;;;;;;;6278163;22;19911;-81
2022/01/30 10:08:30;;;;;;;;;;;;;;;;;;6278134;22;19973;-81
2022/01/30 10:11:00;;;;;;;;;;;;;;;;;;6278753;22;19911;-82
2022/01/30 10:13:29;;;;;;;;;;;;;;;;;;6278404;22;19911;-81
2022/01/30 10:15:56;;;;;;;;;;;;;;;;;;6278610;22;19918;-81
2022/01/30 10:18:22;;;;;;;;;;;;;;;;;;6278468;22;19982;-81
2022/01/30 10:20:47;;;;;;;;;;;;;;;;;;6277680;22;19950;-82
2022/01/30 10:23:12;;;;;;;;;;;;;;;;;;6278684;22;20332;-81
2022/01/30 10:25:38;;;;;;;;;;;;;;;;;;6277889;22;20603;-82
2022/01/30 10:28:04;;;;;;;;;;;;;;;;;;6278878;22;19965;-82
2022/01/30 10:30:30;;;;;;;;;;;;;;;;;;6278809;22;19907;-82
2022/01/30 10:32:58;;;;;;;;;;;;;;;;;;6277661;22;20221;-83
2022/01/30 10:35:23;;;;;;;;;;;;;;;;;;6278460;22;19926;-83
2022/01/30 10:37:48;;;;;;;;;;;;;;;;;;6278146;22;19982;-83
2022/01/30 10:40:37;;;;;;;;;;;;;;;;;;6278100;22;19907;-83
2022/01/30 10:43:02;;;;;;;;;;;;;;;;;;6243462;23;19985;-81
2022/01/30 10:45:31;;;;;;;;;;;;;;;;;;6275016;22;19919;-81
2022/01/30 10:48:10;;;;;;;;;;;;;;;;;;6275834;22;19908;-83
2022/01/30 10:50:37;;;;;;;;;;;;;;;;;;6277293;22;19907;-82
2022/01/30 10:53:03;;;;;;;;;;;;;;;;;;6277578;22;19961;-82
2022/01/30 10:55:31;;;;;;;;;;;;;;;;;;6278846;22;19907;-83
2022/01/30 10:58:01;;;;;;;;;;;;;;;;;;6278441;22;19964;-82
2022/01/30 11:00:43;;;;;;;;;;;;;;;;;;6277485;22;19907;-81
2022/01/30 11:03:09;;;;;;;;;;;;;;;;;;6277376;22;19908;-82
2022/01/30 11:08:47;;;;;;;;;;;;;;;;;;6232774;22;19949;-80
2022/01/30 11:11:40;;;;;;;;;;;;;;;;;;6277173;22;19922;-79
2022/01/30 11:19:18;;;;;;;;;;;;;;;;;;6277127;22;19986;-80
2022/01/30 11:21:45;;;;;;;;;;;;;;;;;;6277163;22;19907;-80
2022/01/30 11:24:26;;;;;;;;;;;;;;;;;;6277106;22;19908;-80
2022/01/30 11:26:51;;;;;;;;;;;;;;;;;;6277238;22;19911;-80
2022/01/30 11:29:19;;;;;;;;;;;;;;;;;;6278073;22;19917;-80
2022/01/30 11:31:44;;;;;;;;;;;;;;;;;;6278272;22;19907;-81
2022/01/30 11:34:09;;;;;;;;;;;;;;;;;;6278547;22;19914;-81
2022/01/30 11:36:38;;;;;;;;;;;;;;;;;;6250940;22;19907;-82
2022/01/30 11:39:05;;;;;;;;;;;;;;;;;;6277505;22;19929;-80
2022/01/30 11:41:33;;;;;;;;;;;;;;;;;;6277061;22;19907;-82
2022/01/30 11:44:17;;;;;;;;;;;;;;;;;;6277726;22;20082;-84
2022/01/30 11:47:20;;;;;;;;;;;;;;;;;;6277910;22;19982;-81
2022/01/30 11:55:54;;;;;;;;;;;;;;;;;;6278118;22;19914;-79
2022/01/30 11:58:34;;;;;;;;;;;;;;;;;;6250605;22;20527;-80
2022/01/30 12:01:18;;;;;;;;;;;;;;;;;;6277858;22;20317;-82
2022/01/30 12:04:10;;;;;;;;;;;;;;;;;;6277622;22;19922;-80
2022/01/30 12:06:54;;;;;;;;;;;;;;;;;;6250955;22;20184;-81
2022/01/30 12:19:01;;;;;;;;;;;;;;;;;;6183169;23;19936;-80
2022/01/30 12:21:46;;;;;;;;;;;;;;;;;;;;;
2022/01/30 12:30:54;;;;;;;;;;;;;;;;;;6183656;23;19996;-82
2022/01/30 12:33:32;;;;;;;;;;;;;;;;;;6184166;23;19916;-82
2022/01/30 12:35:58;;;;;;;;;;;;;;;;;;6183840;23;19916;-82
2022/01/30 12:38:38;;;;;;;;;;;;;;;;;;6158601;23;20263;-82
2022/01/30 12:41:17;;;;;;;;;;;;;;;;;;6183397;23;19912;-83
2022/01/30 12:43:42;;;;;;;;;;;;;;;;;;6183610;23;19908;-81
2022/01/30 12:46:07;;;;;;;;;;;;;;;;;;6183502;23;19919;-84
2022/01/30 12:48:33;;;;;;;;;;;;;;;;;;6159875;23;19914;-83
2022/01/30 12:51:03;;;;;;;;;;;;;;;;;;6219892;22;20313;-81
2022/01/30 12:53:29;;;;;;;;;;;;;;;;;;6278578;22;20303;-86
2022/01/30 12:55:54;;;;;;;;;;;;;;;;;;6279581;22;19911;-88
2022/01/30 12:58:19;;;;;;;;;;;;;;;;;;6253059;22;19954;-84
2022/01/30 13:00:45;;;;;;;;;;;;;;;;;;6277993;22;19997;-79
2022/01/30 13:03:18;;;;;;;;;;;;;;;;;;6278108;22;19942;-79
2022/01/30 13:05:46;;;;;;;;;;;;;;;;;;6277152;22;19923;-79
2022/01/30 13:08:11;;;;;;;;;;;;;;;;;;6279027;22;19930;-80
2022/01/30 13:10:36;;;;;;;;;;;;;;;;;;6278209;22;19907;-79
2022/01/30 13:13:04;;;;;;;;;;;;;;;;;;6252448;22;19911;-80
2022/01/30 13:15:32;;;;;;;;;;;;;;;;;;6277791;22;19917;-80
2022/01/30 13:18:03;;;;;;;;;;;;;;;;;;6279183;22;19915;-80
2022/01/30 13:20:31;;;;;;;;;;;;;;;;;;6277991;22;19907;-80
2022/01/30 13:22:56;;;;;;;;;;;;;;;;;;6251225;22;20302;-79
2022/01/30 13:25:24;;;;;;;;;;;;;;;;;;6252220;22;19912;-80
2022/01/30 13:27:50;;;;;;;;;;;;;;;;;;6278689;22;19907;-80
2022/01/30 13:30:22;;;;;;;;;;;;;;;;;;6279239;22;19918;-81
2022/01/30 13:32:47;;;;;;;;;;;;;;;;;;6277767;22;19954;-80
2022/01/30 13:35:13;;;;;;;;;;;;;;;;;;6279178;22;20263;-81
2022/01/30 13:37:39;;;;;;;;;;;;;;;;;;6279100;22;19931;-80
2022/01/30 13:40:36;;;;;;;;;;;;;;;;;;6279065;22;19914;-81
2022/01/30 13:43:10;;;;;;;;;;;;;;;;;;6277630;22;19907;-80
2022/01/30 13:48:20;;;;;;;;;;;;;;;;;;6278565;22;20000;-80
2022/01/30 13:51:03;;;;;;;;;;;;;;;;;;6278150;22;19918;-81
2022/01/30 13:53:31;;;;;;;;;;;;;;;;;;6277918;22;19907;-81
2022/01/30 13:56:00;;;;;;;;;;;;;;;;;;6277726;22;19911;-79
2022/01/30 13:58:30;;;;;;;;;;;;;;;;;;6278128;22;20248;-80
2022/01/30 14:00:55;;;;;;;;;;;;;;;;;;6278837;22;19911;-80
2022/01/30 14:03:25;;;;;;;;;;;;;;;;;;6278730;22;20278;-79
2022/01/30 14:05:51;;;;;;;;;;;;;;;;;;6278124;22;19927;-81
2022/01/30 14:08:18;;;;;;;;;;;;;;;;;;6276713;22;19991;-81
2022/01/30 14:10:44;;;;;;;;;;;;;;;;;;6277474;22;20347;-81
2022/01/30 14:13:19;;;;;;;;;;;;;;;;;;6251986;22;19942;-79
2022/01/30 14:15:45;;;;;;;;;;;;;;;;;;6276714;22;20275;-81
2022/01/30 14:18:13;;;;;;;;;;;;;;;;;;6277560;22;20350;-78
2022/01/30 14:20:41;;;;;;;;;;;;;;;;;;6278175;22;20317;-80
2022/01/30 14:23:08;;;;;;;;;;;;;;;;;;6277581;22;20227;-79
2022/01/30 14:25:33;;;;;;;;;;;;;;;;;;6279506;22;19915;-80
2022/01/30 14:28:20;;;;;;;;;;;;;;;;;;6277684;22;19953;-79
2022/01/30 14:30:45;;;;;;;;;;;;;;;;;;6278738;22;19912;-80
2022/01/30 14:33:10;;;;;;;;;;;;;;;;;;6278725;22;20288;-81
2022/01/30 14:35:36;;;;;;;;;;;;;;;;;;6278516;22;20037;-80
2022/01/30 14:38:06;;;;;;;;;;;;;;;;;;6277571;22;20337;-80
2022/01/30 14:40:37;;;;;;;;;;;;;;;;;;6277296;22;19922;-81
2022/01/30 14:43:03;;;;;;;;;;;;;;;;;;6278575;22;19907;-81
2022/01/30 14:45:28;;;;;;;;;;;;;;;;;;6251615;22;19946;-80
2022/01/30 14:48:06;;;;;;;;;;;;;;;;;;6277122;22;19914;-80
2022/01/30 14:50:35;;;;;;;;;;;;;;;;;;6278479;22;19947;-79
2022/01/30 14:53:03;;;;;;;;;;;;;;;;;;6278172;22;19918;-79
2022/01/30 14:55:28;;;;;;;;;;;;;;;;;;6277327;22;19950;-78
2022/01/30 14:57:56;;;;;;;;;;;;;;;;;;6277050;22;19911;-78
2022/01/30 15:00:22;;;;;;;;;;;;;;;;;;6278426;22;19918;-78
2022/01/30 15:02:48;;;;;;;;;;;;;;;;;;6277376;22;19960;-78
2022/01/30 15:05:14;;;;;;;;;;;;;;;;;;6278105;22;19915;-77
2022/01/30 15:07:39;;;;;;;;;;;;;;;;;;6276995;22;20258;-79
2022/01/30 15:10:07;;;;;;;;;;;;;;;;;;6278139;22;19907;-79
2022/01/30 15:12:35;;;;;;;;;;;;;;;;;;6278351;22;19911;-79
2022/01/30 15:15:00;;;;;;;;;;;;;;;;;;6278280;22;19938;-78
2022/01/30 15:17:34;;;;;;;;;;;;;;;;;;6278667;22;20294;-77
2022/01/30 15:20:00;;;;;;;;;;;;;;;;;;6278100;22;20349;-78
2022/01/30 15:22:25;;;;;;;;;;;;;;;;;;6278559;22;19911;-79
2022/01/30 15:24:53;;;;;;;;;;;;;;;;;;6277767;22;19919;-78
2022/01/30 15:27:18;;;;;;;;;;;;;;;;;;6276755;22;19923;-78
2022/01/30 15:29:46;;;;;;;;;;;;;;;;;;6277214;22;19907;-80
2022/01/30 15:32:29;;;;;;;;;;;;;;;;;;6250990;22;19907;-81
2022/01/30 15:34:59;;;;;;;;;;;;;;;;;;6251018;22;19957;-78
2022/01/30 15:37:27;;;;;;;;;;;;;;;;;;6277637;22;19911;-78
2022/01/30 15:39:52;;;;;;;;;;;;;;;;;;6277650;22;19907;-78
2022/01/30 15:42:17;;;;;;;;;;;;;;;;;;6277706;22;19915;-80
2022/01/30 15:49:58;;;;;;;;;;;;;;;;;;6276909;22;20326;-82
2022/01/30 15:52:29;;;;;;;;;;;;;;;;;;6251399;22;19911;-82
2022/01/30 15:54:56;;;;;;;;;;;;;;;;;;6277129;22;19911;-81
2022/01/30 15:57:23;;;;;;;;;;;;;;;;;;6277715;22;19980;-79
2022/01/30 15:59:48;;;;;;;;;;;;;;;;;;6277845;22;19915;-81
2022/01/30 16:02:14;;;;;;;;;;;;;;;;;;6276271;22;19964;-78
2022/01/30 16:04:39;;;;;;;;;;;;;;;;;;6277740;22;19912;-82
2022/01/30 16:07:07;;;;;;;;;;;;;;;;;;6276683;22;20297;-80
2022/01/30 16:09:36;;;;;;;;;;;;;;;;;;6277766;22;19933;-81
2022/01/30 16:12:47;;;;;;;;;;;;;;;;;;6276420;22;19908;-81
2022/01/30 16:17:49;;;;;;;;;;;;;;;;;;6277171;22;19965;-81
2022/01/30 16:20:16;;;;;;;;;;;;;;;;;;6250923;22;19962;-84
2022/01/30 16:22:42;;;;;;;;;;;;;;;;;;6277846;22;19990;-82
2022/01/30 16:25:07;;;;;;;;;;;;;;;;;;6278509;22;19962;-86
2022/01/30 16:27:33;;;;;;;;;;;;;;;;;;6279729;22;19919;-86
2022/01/30 16:29:58;;;;;;;;;;;;;;;;;;6279606;22;20210;-90
2022/01/30 16:32:23;;;;;;;;;;;;;;;;;;6252449;22;19908;-85
2022/01/30 16:34:48;;;;;;;;;;;;;;;;;;6281581;22;19911;-88
2022/01/30 16:37:13;;;;;;;;;;;;;;;;;;6281451;22;19950;-92
2022/01/30 16:39:39;;;;;;;;;;;;;;;;;;6281960;22;19939;-88
2022/01/30 16:42:04;;;;;;;;;;;;;;;;;;6254546;22;19991;-89
2022/01/30 16:44:37;;;;;;;;;;;;;;;;;;6281632;22;19907;-86
2022/01/30 16:47:15;;;;;;;;;;;;;;;;;;6282561;22;19907;-83
2022/01/30 16:49:41;;;;;;;;;;;;;;;;;;6286758;22;19907;-87
2022/01/30 16:52:14;;;;;;;;;;;;;;;;;;6284571;22;19908;-87
2022/01/30 16:54:39;;;;;;;;;;;;;;;;;;6283079;22;19907;-86
2022/01/30 16:57:05;;;;;;;;;;;;;;;;;;6279685;22;19938;-86
2022/01/30 16:59:32;;;;;;;;;;;;;;;;;;6280398;22;19945;-86
2022/01/30 17:01:58;;;;;;;;;;;;;;;;;;6279212;22;19949;-82
2022/01/30 17:04:23;;;;;;;;;;;;;;;;;;6280769;22;19911;-88
2022/01/30 17:06:48;;;;;;;;;;;;;;;;;;6282003;22;19918;-86
2022/01/30 17:12:32;;;;;;;;;;;;;;;;;;6255122;22;19907;-87
2022/01/30 17:15:00;;;;;;;;;;;;;;;;;;6253281;22;20199;-86
2022/01/30 17:17:25;;;;;;;;;;;;;;;;;;6278948;22;19907;-86
2022/01/30 17:19:50;;;;;;;;;;;;;;;;;;6253130;22;19953;-87
2022/01/30 17:22:16;;;;;;;;;;;;;;;;;;6279746;22;19914;-88
2022/01/30 17:24:50;;;;;;;;;;;;;;;;;;6279716;22;20287;-81
2022/01/30 17:27:17;;;;;;;;;;;;;;;;;;6278786;22;20325;-82
2022/01/30 17:29:42;;;;;;;;;;;;;;;;;;6252810;22;19919;-81
2022/01/30 17:32:07;;;;;;;;;;;;;;;;;;6279289;22;19911;-83
2022/01/30 17:34:33;;;;;;;;;;;;;;;;;;6278798;22;20352;-81
2022/01/30 17:36:58;;;;;;;;;;;;;;;;;;6252492;22;19918;-81
2022/01/30 17:39:23;;;;;;;;;;;;;;;;;;6279373;22;19989;-82
2022/01/30 17:41:48;;;;;;;;;;;;;;;;;;6279361;22;19982;-82
2022/01/30 17:44:14;;;;;;;;;;;;;;;;;;6279131;22;19911;-84
2022/01/30 17:46:39;;;;;;;;;;;;;;;;;;6279161;22;20309;-84
2022/01/30 17:49:04;;;;;;;;;;;;;;;;;;6279424;22;20430;-84
2022/01/30 17:51:31;;;;;;;;;;;;;;;;;;6279060;22;19911;-84
2022/01/30 17:53:57;;;;;;;;;;;;;;;;;;6278861;22;19911;-83
2022/01/30 17:56:25;;;;;;;;;;;;;;;;;;6277123;22;19965;-86
2022/01/30 17:58:52;;;;;;;;;;;;;;;;;;6276525;22;20322;-87
2022/01/30 18:01:17;;;;;;;;;;;;;;;;;;6281361;22;19918;-87
2022/01/30 18:03:43;;;;;;;;;;;;;;;;;;6278403;22;19935;-85
2022/01/30 18:06:16;;;;;;;;;;;;;;;;;;6278442;22;19969;-87
2022/01/30 18:08:43;;;;;;;;;;;;;;;;;;6279402;22;19970;-86
2022/01/30 18:11:08;;;;;;;;;;;;;;;;;;6252889;22;19961;-86
2022/01/30 18:13:33;;;;;;;;;;;;;;;;;;6278063;22;20253;-87
2022/01/30 18:15:59;;;;;;;;;;;;;;;;;;6278952;22;19911;-83
2022/01/30 18:18:24;;;;;;;;;;;;;;;;;;6252363;22;19907;-89
2022/01/30 18:20:50;;;;;;;;;;;;;;;;;;6278023;22;19918;-90
2022/01/30 18:23:20;;;;;;;;;;;;;;;;;;6277679;22;19942;-89
2022/01/30 18:25:45;;;;;;;;;;;;;;;;;;6265982;22;19916;-91
2022/01/30 18:28:13;;;;;;;;;;;;;;;;;;6292005;22;19923;-91
2022/01/30 18:33:45;;;;;;;;;;;;;;;;;;6291067;22;19914;-93
2022/01/30 18:36:21;;;;;;;;;;;;;;;;;;6279131;22;19918;-91
2022/01/30 18:38:54;;;;;;;;;;;;;;;;;;6279096;22;19911;-90
2022/01/30 18:41:19;;;;;;;;;;;;;;;;;;6278930;22;19907;-89
2022/01/30 18:43:49;;;;;;;;;;;;;;;;;;6277490;22;19907;-86
2022/01/30 18:46:14;;;;;;;;;;;;;;;;;;6278360;22;19919;-90
2022/01/30 18:48:40;;;;;;;;;;;;;;;;;;6278678;22;20040;-89
2022/01/30 18:51:08;;;;;;;;;;;;;;;;;;6252209;22;19965;-89
2022/01/30 18:53:33;;;;;;;;;;;;;;;;;;6277589;22;19965;-86
2022/01/30 18:55:58;;;;;;;;;;;;;;;;;;6278641;22;19907;-88
2022/01/30 18:58:23;;;;;;;;;;;;;;;;;;6251933;22;19968;-89
2022/01/30 19:00:49;;;;;;;;;;;;;;;;;;6278281;22;19939;-86
2022/01/30 19:03:14;;;;;;;;;;;;;;;;;;6251704;22;19907;-87
2022/01/30 19:05:43;;;;;;;;;;;;;;;;;;6276817;22;19923;-88